createdAt,value
2019-04-05T00:01:51.820Z,12.50
2019-04-05T00:04:19.141Z,12.30
2019-04-05T00:06:46.553Z,12.30
2019-04-05T00:09:13.953Z,12.30
2019-04-05T00:11:41.282Z,12.30
2019-04-05T00:14:08.591Z,14.00
2019-04-05T00:16:36.006Z,12.30
2019-04-05T00:19:03.492Z,12.30
2019-04-05T00:21:30.889Z,10.20
2019-04-05T00:23:58.354Z,12.20
2019-04-05T00:26:25.538Z,12.30
2019-04-05T00:28:53.068Z,13.60
2019-04-05T00:31:20.345Z,12.30
2019-04-05T00:33:47.700Z,12.70
2019-04-05T00:36:15.072Z,12.30
2019-04-05T00:38:42.408Z,12.30
2019-04-05T00:41:09.759Z,12.30
2019-04-05T00:43:37.026Z,12.30
2019-04-05T00:46:04.862Z,12.30
2019-04-05T00:48:32.318Z,12.20
2019-04-05T00:50:59.737Z,14.70
2019-04-05T00:53:27.190Z,12.20
2019-04-05T00:55:54.721Z,15.10
2019-04-05T00:58:22.178Z,12.20
2019-04-05T01:00:49.948Z,12.20
2019-04-05T01:03:17.243Z,12.50
2019-04-05T01:05:44.581Z,12.70
2019-04-05T01:08:12.030Z,12.20
2019-04-05T01:10:39.458Z,12.20
2019-04-05T01:13:06.835Z,12.20
2019-04-05T01:15:40.867Z,12.20
2019-04-05T01:18:03.510Z,12.20
2019-04-05T01:20:34.697Z,12.20
2019-04-05T01:23:02.167Z,12.10
2019-04-05T01:25:29.703Z,12.20
2019-04-05T01:27:57.954Z,12.20
2019-04-05T01:30:25.255Z,12.10
2019-04-05T01:32:52.666Z,12.10
2019-04-05T01:35:20.123Z,12.10
2019-04-05T01:37:47.796Z,12.20
2019-04-05T01:40:15.336Z,12.10
2019-04-05T01:42:43.217Z,12.10
2019-04-05T01:45:10.854Z,12.20
2019-04-05T01:47:38.397Z,12.10
2019-04-05T01:50:07.734Z,12.10
2019-04-05T01:52:35.369Z,12.10
2019-04-05T01:55:03.234Z,12.10
2019-04-05T01:57:31.117Z,12.10
2019-04-05T01:59:58.655Z,14.70
2019-04-05T02:02:26.415Z,12.10
2019-04-05T02:04:53.969Z,12.10
2019-04-05T02:07:21.390Z,12.10
2019-04-05T02:09:50.779Z,12.10
2019-04-05T02:12:18.596Z,12.00
2019-04-05T02:14:46.235Z,12.00
2019-04-05T02:17:13.705Z,12.00
2019-04-05T02:19:41.191Z,12.00
2019-04-05T02:22:08.671Z,11.90
2019-04-05T02:24:36.160Z,11.90
2019-04-05T02:27:03.626Z,11.90
2019-04-05T02:29:31.705Z,11.90
2019-04-05T02:31:59.270Z,11.90
2019-04-05T02:34:26.724Z,11.90
2019-04-05T02:36:54.229Z,11.90
2019-04-05T02:39:21.703Z,11.90
2019-04-05T02:41:50.399Z,11.90
2019-04-05T02:44:19.142Z,11.90
2019-04-05T02:46:47.702Z,11.90
2019-04-05T02:49:15.879Z,11.90
2019-04-05T02:51:47.256Z,11.90
2019-04-05T02:54:15.392Z,11.90
2019-04-05T02:56:42.941Z,12.00
2019-04-05T02:59:10.828Z,12.10
2019-04-05T03:01:38.464Z,11.90
2019-04-05T03:04:06.640Z,11.90
2019-04-05T03:06:34.500Z,11.90
2019-04-05T03:09:04.804Z,11.90
2019-04-05T03:11:34.656Z,12.60
2019-04-05T03:14:02.857Z,11.90
2019-04-05T03:16:41.140Z,13.20
2019-04-05T03:19:12.356Z,11.90
2019-04-05T03:21:44.054Z,12.50
2019-04-05T03:24:15.521Z,11.80
2019-04-05T03:26:49.203Z,11.80
2019-04-05T03:29:16.736Z,11.90
2019-04-05T03:31:44.296Z,12.00
2019-04-05T03:34:12.911Z,11.90
2019-04-05T03:36:40.264Z,14.30
2019-04-05T03:39:09.242Z,13.40
2019-04-05T03:41:36.792Z,11.80
2019-04-05T03:44:04.639Z,11.80
2019-04-05T03:46:32.492Z,11.80
2019-04-05T03:49:00.231Z,11.80
2019-04-05T03:51:27.676Z,13.50
2019-04-05T03:53:55.170Z,11.80
2019-04-05T03:56:22.554Z,11.80
2019-04-05T03:58:50.329Z,11.80
2019-04-05T04:01:17.878Z,11.80
2019-04-05T04:03:45.354Z,11.80
2019-04-05T04:06:13.324Z,11.80
2019-04-05T04:08:40.729Z,11.80
2019-04-05T04:11:08.177Z,11.80
2019-04-05T04:13:35.780Z,11.80
2019-04-05T04:16:03.977Z,9.20
2019-04-05T04:18:32.180Z,11.80
2019-04-05T04:21:03.062Z,11.80
2019-04-05T04:23:30.636Z,11.90
2019-04-05T04:25:58.804Z,11.90
2019-04-05T04:28:26.599Z,9.80
2019-04-05T04:30:54.196Z,12.30
2019-04-05T04:33:21.802Z,12.80
2019-04-05T04:35:49.796Z,11.90
2019-04-05T04:38:17.229Z,11.90
2019-04-05T04:40:45.474Z,13.30
2019-04-05T04:43:13.854Z,11.80
2019-04-05T04:45:42.247Z,11.90
2019-04-05T04:48:09.594Z,12.20
2019-04-05T04:50:37.717Z,12.10
2019-04-05T04:53:05.498Z,11.90
2019-04-05T04:55:33.930Z,11.90
2019-04-05T04:58:01.687Z,11.90
2019-04-05T05:00:29.154Z,11.90
2019-04-05T05:02:56.561Z,11.90
2019-04-05T05:05:24.319Z,11.90
2019-04-05T05:07:52.229Z,11.90
2019-04-05T05:10:20.259Z,11.90
2019-04-05T05:12:47.684Z,11.90
2019-04-05T05:15:15.317Z,11.90
2019-04-05T05:17:42.671Z,11.90
2019-04-05T05:20:10.641Z,11.90
2019-04-05T05:22:38.559Z,12.00
2019-04-05T05:25:07.808Z,9.40
2019-04-05T05:27:55.011Z,11.90
2019-04-05T05:30:22.557Z,12.00
2019-04-05T05:32:49.828Z,12.00
2019-04-05T05:35:17.359Z,12.00
2019-04-05T05:37:44.671Z,12.00
2019-04-05T05:40:12.317Z,12.00
2019-04-05T05:42:39.935Z,12.90
2019-04-05T05:45:08.351Z,12.00
2019-04-05T05:47:35.807Z,12.00
2019-04-05T05:50:03.780Z,15.50
2019-04-05T05:52:31.776Z,12.00
2019-04-05T05:54:59.184Z,12.00
2019-04-05T05:57:26.490Z,15.10
2019-04-05T05:59:53.850Z,12.00
2019-04-05T06:02:21.364Z,12.00
2019-04-05T06:04:48.958Z,14.20
2019-04-05T06:07:16.379Z,12.10
2019-04-05T06:09:43.781Z,12.80
2019-04-05T06:12:11.368Z,12.10
2019-04-05T06:14:38.815Z,12.00
2019-04-05T06:17:06.218Z,9.70
2019-04-05T06:19:33.682Z,12.00
2019-04-05T06:22:01.660Z,12.10
2019-04-05T06:24:29.126Z,12.10
2019-04-05T06:26:56.547Z,15.10
2019-04-05T06:29:23.927Z,12.10
2019-04-05T06:31:51.578Z,12.00
2019-04-05T06:34:18.943Z,12.10
2019-04-05T06:36:46.228Z,12.10
2019-04-05T06:39:13.544Z,12.00
2019-04-05T06:41:40.921Z,12.10
2019-04-05T06:44:08.320Z,12.70
2019-04-05T06:46:35.812Z,12.00
2019-04-05T06:49:03.210Z,12.00
2019-04-05T06:51:30.566Z,12.00
2019-04-05T06:53:58.153Z,12.00
2019-04-05T06:56:25.452Z,12.00
2019-04-05T06:58:52.784Z,12.00
2019-04-05T07:01:20.238Z,12.10
2019-04-05T07:03:47.686Z,12.00
2019-04-05T07:06:14.971Z,11.90
2019-04-05T07:08:53.155Z,12.00
2019-04-05T07:11:11.542Z,14.30
2019-04-05T07:13:38.956Z,12.00
2019-04-05T07:16:06.548Z,12.00
2019-04-05T07:18:36.226Z,12.00
2019-04-05T07:21:03.714Z,14.20
2019-04-05T07:23:31.160Z,15.40
2019-04-05T07:25:58.584Z,12.00
2019-04-05T07:28:26.109Z,12.00
2019-04-05T07:30:53.808Z,12.00
2019-04-05T07:33:21.212Z,12.00
2019-04-05T07:35:48.681Z,12.10
2019-04-05T07:38:16.307Z,12.10
2019-04-05T07:40:43.742Z,12.10
2019-04-05T07:43:11.231Z,12.20
2019-04-05T07:45:38.696Z,12.20
2019-04-05T07:48:06.207Z,12.10
2019-04-05T07:50:33.625Z,12.20
2019-04-05T07:53:01.350Z,12.20
2019-04-05T07:55:28.722Z,12.50
2019-04-05T07:57:56.373Z,12.30
2019-04-05T08:00:50.649Z,12.40
2019-04-05T08:03:18.435Z,12.30
2019-04-05T08:05:46.340Z,12.40
2019-04-05T08:08:36.951Z,12.40
2019-04-05T08:11:05.301Z,12.40
2019-04-05T08:13:35.447Z,12.50
2019-04-05T08:16:02.891Z,12.70
2019-04-05T08:18:30.232Z,10.90
2019-04-05T08:20:57.774Z,13.00
2019-04-05T08:23:25.097Z,13.10
2019-04-05T08:25:52.542Z,12.70
2019-04-05T08:28:19.919Z,12.80
2019-04-05T08:30:47.375Z,12.80
2019-04-05T08:33:17.081Z,13.90
2019-04-05T08:35:44.471Z,13.00
2019-04-05T08:38:11.799Z,13.00
2019-04-05T08:40:39.175Z,13.20
2019-04-05T08:43:06.692Z,13.10
2019-04-05T08:45:34.054Z,13.20
2019-04-05T08:48:01.404Z,13.30
2019-04-05T08:50:28.940Z,13.30
2019-04-05T08:52:56.323Z,13.40
2019-04-05T08:55:23.906Z,13.40
2019-04-05T08:57:51.339Z,13.50
2019-04-05T09:00:19.014Z,13.60
2019-04-05T09:02:47.322Z,13.70
2019-04-05T09:05:14.717Z,13.90
2019-04-05T09:08:01.598Z,14.20
2019-04-05T09:10:29.198Z,14.00
2019-04-05T09:12:56.550Z,14.10
2019-04-05T09:15:23.912Z,14.20
2019-04-05T09:17:51.720Z,14.30
2019-04-05T09:20:19.076Z,14.30
2019-04-05T09:22:46.866Z,15.80
2019-04-05T09:25:14.188Z,14.50
2019-04-05T09:27:41.610Z,14.60
2019-04-05T09:30:31.568Z,14.60
2019-04-05T09:32:59.001Z,14.70
2019-04-05T09:35:27.282Z,14.70
2019-04-05T09:37:54.679Z,14.90
2019-04-05T09:40:22.257Z,14.70
2019-04-05T09:42:49.680Z,14.70
2019-04-05T09:45:17.268Z,14.70
2019-04-05T09:47:44.786Z,14.70
2019-04-05T09:50:13.606Z,14.70
2019-04-05T09:52:41.058Z,14.70
2019-04-05T09:55:08.602Z,14.70
2019-04-05T09:57:36.018Z,14.70
2019-04-05T10:00:04.976Z,14.70
2019-04-05T10:02:32.384Z,14.70
2019-04-05T10:04:59.810Z,14.70
2019-04-05T10:07:27.334Z,14.70
2019-04-05T10:09:54.781Z,14.60
2019-04-05T10:12:22.293Z,14.70
2019-04-05T10:14:49.740Z,14.70
2019-04-05T10:17:17.348Z,14.70
2019-04-05T10:19:50.266Z,14.60
2019-04-05T10:22:14.097Z,16.20
2019-04-05T10:24:41.471Z,14.70
2019-04-05T10:27:08.982Z,14.70
2019-04-05T10:29:36.413Z,14.70
2019-04-05T10:32:03.791Z,14.70
2019-04-05T10:34:31.127Z,14.70
2019-04-05T10:36:58.606Z,14.70
2019-04-05T10:39:26.095Z,14.70
2019-04-05T10:42:03.342Z,14.70
2019-04-05T10:44:22.931Z,15.00
2019-04-05T10:46:50.451Z,14.70
2019-04-05T10:49:17.975Z,14.60
2019-04-05T10:51:45.479Z,14.60
2019-04-05T10:54:12.880Z,14.70
2019-04-05T10:56:40.232Z,14.60
2019-04-05T10:59:07.895Z,16.60
2019-04-05T11:01:35.330Z,14.50
2019-04-05T11:04:02.688Z,16.50
2019-04-05T11:06:30.052Z,14.60
2019-04-05T11:08:57.612Z,14.50
2019-04-05T11:11:25.003Z,14.50
2019-04-05T11:13:52.443Z,14.50
2019-04-05T11:19:06.993Z,14.60
2019-04-05T11:21:34.593Z,14.60
2019-04-05T11:24:01.997Z,14.60
2019-04-05T11:26:29.663Z,14.60
2019-04-05T11:28:57.172Z,14.60
2019-04-05T11:31:26.255Z,14.70
2019-04-05T11:33:53.762Z,14.70
2019-04-05T11:36:21.335Z,14.70
2019-04-05T11:38:50.859Z,14.70
2019-04-05T11:41:18.776Z,14.70
2019-04-05T11:43:48.433Z,14.80
2019-04-05T11:46:19.681Z,14.80
2019-04-05T11:48:47.352Z,14.80
2019-04-05T11:51:16.833Z,14.90
2019-04-05T11:53:46.328Z,14.80
2019-04-05T11:56:14.824Z,15.00
2019-04-05T11:58:48.400Z,15.00
2019-04-05T12:01:23.536Z,15.10
2019-04-05T12:03:50.746Z,15.50
2019-04-05T12:06:18.217Z,15.20
2019-04-05T12:08:45.654Z,15.20
2019-04-05T12:11:12.914Z,17.60
2019-04-05T12:13:40.254Z,15.30
2019-04-05T12:16:10.354Z,15.70
2019-04-05T12:18:36.787Z,15.30
2019-04-05T12:21:05.769Z,18.50
2019-04-05T12:23:33.552Z,17.40
2019-04-05T12:26:03.783Z,15.40
2019-04-05T12:28:30.366Z,15.40
2019-04-05T12:30:57.674Z,15.50
2019-04-05T12:33:25.196Z,15.70
2019-04-05T12:35:56.321Z,15.80
2019-04-05T12:38:32.471Z,16.00
2019-04-05T12:41:01.456Z,16.20
2019-04-05T12:43:28.932Z,16.50
2019-04-05T12:45:56.305Z,16.80
2019-04-05T12:48:24.587Z,17.00
2019-04-05T12:51:01.097Z,17.30
2019-04-05T12:53:21.321Z,17.50
2019-04-05T12:55:48.876Z,17.70
2019-04-05T12:58:16.307Z,17.90
2019-04-05T13:00:43.738Z,17.90
2019-04-05T13:03:11.149Z,18.10
2019-04-05T13:05:38.928Z,18.20
2019-04-05T13:08:06.601Z,18.40
2019-04-05T13:10:34.145Z,18.50
2019-04-05T13:13:01.531Z,18.80
2019-04-05T13:15:29.165Z,18.90
2019-04-05T13:18:00.437Z,19.00
2019-04-05T13:20:30.210Z,19.00
2019-04-05T13:22:56.969Z,19.10
2019-04-05T13:25:24.566Z,19.10
2019-04-05T13:27:52.042Z,19.10
2019-04-05T13:30:19.914Z,18.40
2019-04-05T13:32:47.350Z,19.00
2019-04-05T13:35:16.784Z,18.90
2019-04-05T13:37:44.337Z,18.80
2019-04-05T13:40:13.893Z,18.70
2019-04-05T13:42:41.390Z,18.60
2019-04-05T13:45:09.609Z,18.60
2019-04-05T13:47:38.891Z,18.50
2019-04-05T13:50:10.853Z,18.30
2019-04-05T13:52:36.473Z,18.30
2019-04-05T13:55:04.639Z,18.30
2019-04-05T13:57:34.624Z,18.20
2019-04-05T14:00:03.765Z,18.10
2019-04-05T14:02:31.632Z,18.70
2019-04-05T14:05:02.307Z,17.90
2019-04-05T14:07:29.737Z,17.80
2019-04-05T14:10:02.033Z,17.90
2019-04-05T14:12:31.334Z,17.70
2019-04-05T14:14:59.134Z,17.70
2019-04-05T14:17:26.633Z,17.60
2019-04-05T14:19:54.071Z,17.40
2019-04-05T14:22:23.009Z,17.40
2019-04-05T14:24:52.873Z,17.30
2019-04-05T14:27:19.761Z,17.40
2019-04-05T14:29:47.750Z,17.30
2019-04-05T14:32:21.015Z,17.30
2019-04-05T14:34:44.754Z,17.40
2019-04-05T14:37:12.237Z,17.30
2019-04-05T14:39:39.692Z,17.30
2019-04-05T14:42:09.973Z,17.20
2019-04-05T14:44:36.858Z,17.20
2019-04-05T14:47:05.134Z,17.20
2019-04-05T14:49:32.606Z,17.20
2019-04-05T14:52:01.152Z,17.10
2019-04-05T14:54:49.525Z,17.10
2019-04-05T14:57:17.172Z,17.10
2019-04-05T14:59:44.832Z,17.20
2019-04-05T15:02:12.407Z,17.20
2019-04-05T15:04:39.997Z,15.30
2019-04-05T15:07:07.607Z,16.20
2019-04-05T15:09:35.447Z,14.70
2019-04-05T15:12:03.219Z,13.60
2019-04-05T15:14:30.690Z,17.10
2019-04-05T15:16:58.235Z,17.20
2019-04-05T15:19:26.034Z,17.20
2019-04-05T15:22:05.041Z,17.20
2019-04-05T15:24:22.866Z,17.50
2019-04-05T15:26:51.611Z,17.20
2019-04-05T15:29:19.587Z,17.00
2019-04-05T15:31:47.069Z,17.20
2019-04-05T15:34:14.802Z,17.20
2019-04-05T15:36:42.260Z,17.10
2019-04-05T15:39:09.676Z,17.60
2019-04-05T15:41:37.257Z,17.10
2019-04-05T15:44:05.531Z,17.10
2019-04-05T15:46:33.190Z,19.00
2019-04-05T15:49:00.631Z,17.00
2019-04-05T15:51:29.189Z,17.00
2019-04-05T15:53:56.674Z,17.00
2019-04-05T15:56:24.119Z,16.90
2019-04-05T15:58:52.464Z,16.90
2019-04-05T16:01:20.107Z,16.80
2019-04-05T16:03:48.178Z,16.80
2019-04-05T16:06:15.680Z,17.20
2019-04-05T16:08:44.014Z,16.80
2019-04-05T16:11:11.413Z,16.20
2019-04-05T16:13:38.763Z,16.70
2019-04-05T16:16:06.216Z,16.70
2019-04-05T16:18:33.545Z,16.70
2019-04-05T16:21:00.953Z,16.70
2019-04-05T16:23:28.465Z,16.70
2019-04-05T16:25:55.888Z,16.70
2019-04-05T16:28:23.381Z,16.60
2019-04-05T16:30:50.781Z,16.60
2019-04-05T16:33:18.143Z,16.60
2019-04-05T16:35:45.521Z,16.60
2019-04-05T16:38:13.105Z,16.50
2019-04-05T16:40:40.532Z,16.50
2019-04-05T16:43:07.859Z,16.50
2019-04-05T16:45:38.349Z,16.40
2019-04-05T16:48:04.492Z,12.90
2019-04-05T16:50:31.839Z,16.30
2019-04-05T16:52:59.279Z,16.30
2019-04-05T16:55:26.772Z,18.00
2019-04-05T16:57:54.223Z,16.20
2019-04-05T17:00:21.706Z,16.10
2019-04-05T17:02:49.104Z,16.10
2019-04-05T17:05:16.550Z,16.00
2019-04-05T17:07:43.929Z,15.90
2019-04-05T17:10:11.391Z,15.90
2019-04-05T17:12:38.960Z,15.80
2019-04-05T17:15:07.102Z,15.80
2019-04-05T17:17:34.507Z,15.70
2019-04-05T17:20:01.986Z,15.60
2019-04-05T17:22:29.457Z,15.50
2019-04-05T17:24:56.938Z,15.50
2019-04-05T17:27:24.638Z,15.40
2019-04-05T17:29:52.045Z,16.80
2019-04-05T17:32:19.515Z,15.30
2019-04-05T17:34:46.871Z,15.30
2019-04-05T17:37:14.204Z,15.20
2019-04-05T17:39:41.801Z,16.20
2019-04-05T17:42:09.993Z,15.10
2019-04-05T17:44:37.527Z,13.60
2019-04-05T17:47:05.095Z,15.00
2019-04-05T17:49:32.506Z,14.90
2019-04-05T17:52:00.001Z,14.90
2019-04-05T17:54:28.140Z,14.80
2019-04-05T17:56:55.690Z,14.80
2019-04-05T17:59:25.208Z,14.80
2019-04-05T18:01:52.694Z,14.70
2019-04-05T18:04:19.983Z,14.60
2019-04-05T18:06:47.511Z,14.60
2019-04-05T18:09:15.059Z,14.90
2019-04-05T18:11:44.724Z,14.70
2019-04-05T18:14:12.262Z,14.50
2019-04-05T18:16:39.682Z,14.50
2019-04-05T18:19:07.106Z,14.40
2019-04-05T18:21:34.594Z,14.40
2019-04-05T18:24:02.143Z,14.40
2019-04-05T18:26:29.652Z,14.30
2019-04-05T18:28:57.178Z,14.20
2019-04-05T18:31:24.927Z,14.20
2019-04-05T18:33:52.508Z,14.20
2019-04-05T18:36:20.254Z,14.10
2019-04-05T18:38:48.300Z,14.20
2019-04-05T18:41:16.278Z,14.10
2019-04-05T18:43:43.812Z,14.10
2019-04-05T18:46:11.438Z,15.60
2019-04-05T18:48:38.965Z,14.00
2019-04-05T18:51:06.330Z,14.00
2019-04-05T18:53:37.815Z,14.40
2019-04-05T18:56:04.369Z,14.00
2019-04-05T18:58:31.789Z,14.00
2019-04-05T19:00:59.287Z,13.90
2019-04-05T19:03:26.668Z,14.00
2019-04-05T19:05:54.756Z,13.90
2019-04-05T19:08:22.248Z,16.60
2019-04-05T19:10:49.694Z,13.80
2019-04-05T19:13:17.188Z,13.80
2019-04-05T19:15:44.862Z,13.80
2019-04-05T19:18:12.528Z,13.70
2019-04-05T19:20:41.232Z,13.70
2019-04-05T19:23:08.781Z,13.70
2019-04-05T19:25:37.424Z,13.90
2019-04-05T19:28:05.016Z,13.70
2019-04-05T19:50:46.981Z,13.50
2019-04-05T19:53:39.735Z,13.50
2019-04-05T19:56:36.043Z,13.40
2019-04-05T19:59:33.622Z,13.50
2019-04-05T20:02:01.562Z,11.10
2019-04-05T20:04:31.491Z,13.00
2019-04-05T20:06:59.079Z,13.30
2019-04-05T20:09:26.546Z,13.40
2019-04-05T20:11:54.005Z,10.60
2019-04-05T20:14:21.488Z,14.70
2019-04-05T20:16:48.905Z,13.30
2019-04-05T20:19:16.897Z,13.20
2019-04-05T20:21:45.012Z,13.30
2019-04-05T20:24:14.373Z,12.30
2019-04-05T20:26:42.109Z,13.20
2019-04-05T20:29:09.557Z,13.20
2019-04-05T20:31:37.758Z,13.10
2019-04-05T20:34:06.507Z,15.90
2019-04-05T20:36:34.005Z,15.20
2019-04-05T20:39:02.061Z,13.10
2019-04-05T20:41:34.626Z,13.10
2019-04-05T20:44:03.738Z,17.60
2019-04-05T20:46:31.498Z,13.10
2019-04-05T20:48:59.163Z,12.90
2019-04-05T20:51:27.222Z,13.00
2019-04-05T20:53:56.183Z,13.00
2019-04-05T20:56:23.979Z,13.00
2019-04-05T21:01:34.281Z,12.90
2019-04-05T21:04:02.382Z,12.90
2019-04-05T21:06:34.348Z,12.80
2019-04-05T21:09:05.344Z,12.70
2019-04-05T21:11:40.424Z,12.80
2019-04-05T21:14:09.879Z,12.90
2019-04-05T21:16:37.617Z,13.10
2019-04-05T21:19:05.138Z,12.90
2019-04-05T21:21:32.623Z,12.90
2019-04-05T21:24:00.240Z,12.90
2019-04-05T21:26:27.570Z,13.00
2019-04-05T21:28:54.976Z,13.00
2019-04-05T21:31:22.430Z,13.00
2019-04-05T21:33:49.810Z,13.00
2019-04-05T21:36:17.136Z,13.10
2019-04-05T21:38:44.606Z,13.10
2019-04-05T21:41:13.252Z,13.10
2019-04-05T21:43:40.794Z,13.10
2019-04-05T21:46:08.125Z,13.60
2019-04-05T21:48:36.344Z,13.60
2019-04-05T21:51:05.684Z,13.10
2019-04-05T21:53:33.006Z,15.60
2019-04-05T21:56:00.463Z,13.00
2019-04-05T21:58:29.399Z,13.00
2019-04-05T22:01:04.601Z,13.10
2019-04-05T22:03:32.115Z,13.00
2019-04-05T22:05:59.418Z,13.10
2019-04-05T22:08:26.885Z,16.00
2019-04-05T22:10:56.528Z,15.90
2019-04-05T22:13:25.453Z,13.00
2019-04-05T22:15:52.945Z,15.50
2019-04-05T22:18:20.436Z,13.00
2019-04-05T22:20:52.276Z,13.10
2019-04-05T22:23:17.203Z,13.20
2019-04-05T22:25:47.633Z,13.20
2019-04-05T22:28:15.715Z,13.20
2019-04-05T22:30:43.302Z,13.20
2019-04-05T22:33:11.337Z,13.80
2019-04-05T22:35:39.134Z,17.20
2019-04-05T22:38:06.874Z,14.00
2019-04-05T22:40:34.279Z,13.30
2019-04-05T22:43:02.019Z,13.80
2019-04-05T22:45:29.579Z,13.60
2019-04-05T22:47:57.058Z,16.30
2019-04-05T22:50:24.576Z,13.30
2019-04-05T22:52:51.993Z,14.00
2019-04-05T22:55:19.494Z,13.40
2019-04-05T22:57:47.001Z,13.40
2019-04-05T23:00:14.795Z,13.70
2019-04-05T23:02:42.331Z,13.40
2019-04-05T23:05:09.986Z,15.50
2019-04-05T23:07:37.401Z,13.50
2019-04-05T23:10:05.621Z,13.50
2019-04-05T23:12:33.035Z,15.10
2019-04-05T23:15:00.493Z,13.40
2019-04-05T23:20:14.281Z,13.50
2019-04-05T23:22:41.594Z,13.40
2019-04-05T23:25:09.105Z,13.50
2019-04-05T23:27:36.521Z,13.50
2019-04-05T23:30:04.701Z,13.50
2019-04-05T23:32:37.143Z,14.90
2019-04-05T23:35:04.740Z,13.50
2019-04-05T23:37:32.119Z,13.50
2019-04-05T23:39:59.631Z,13.50
2019-04-05T23:42:27.093Z,13.50
2019-04-05T23:45:00.179Z,13.50
2019-04-05T23:47:32.687Z,13.60
2019-04-05T23:50:00.105Z,13.60
2019-04-05T23:52:27.492Z,13.60
2019-04-05T23:54:55.024Z,13.60
2019-04-05T23:57:22.430Z,13.60
2019-04-05T23:59:49.915Z,13.60
